KBRL/BRL METAR and TAF weather

Enter ICAO airport designator
Station Type Date Time Source
KBRL METAR 2020/02/21 15:53 UTC NOAA

KBRL 211553Z AUTO 20014KT 10SM CLR M03/M11 A3060 RMK AO2 SLP374 T10281111


Station Type Date Time Source
KBRL Decoded METAR 2020/02/21 15:53 UTC NOAA

BURLINGTON REGIONAL AIRPORT, IA, United States (KBRL) 40-46N 91-08W 211M
Feb 21, 2020 - 10:53 AM EST / 2020.02.21 1553 UTC
Wind: from the SSW (200 degrees) at 16 MPH (14 KT):0
Visibility: 10 mile(s):0
Sky conditions: clear
Temperature: 27.0 F (-2.8 C)
Windchill: 14 F (-10 C):1
Dew Point: 12.0 F (-11.1 C)
Relative Humidity: 52%
Pressure (altimeter): 30.6 in. Hg (1036 hPa)
ob: KBRL 211553Z AUTO 20014KT 10SM CLR M03/M11 A3060 RMK AO2 SLP374 T10281111
cycle: 16

Station Type Date Time Source
KBRL TAF 2020/02/21 12:22 UTC NOAA

TAF KBRL 211120Z 2112/2212 21007KT P6SM SKC
FM211600 22013G20KT P6SM SKC
FM220000 21010KT P6SM SCT250

Example: see airport list